Terminal Aerodrome Forecast
Issued by NWS

Home | Current Version | Previous Version | Text Only | Print | Product List | Glossary Off
Versions: 1 2 3 4 5 6 7 8 9 10 11 12 13

405
FTUS43 KBIS 200533
TAFJMS
TAF
KJMS 200533Z 2006/2106 VRB03KT P6SM SKC
     FM200800 VRB03KT P6SM VCFG FEW005
     FM201300 11007KT P6SM SKC
     FM201900 14009KT P6SM FEW090 FEW250=

USA.gov is the U.S. government's official web portal to all federal, state and local government web resources and services.